createdAt,value
2023-11-28T00:02:05.246Z,2.64
2023-11-28T00:04:35.316Z,2.62
2023-11-28T00:07:04.878Z,2.71
2023-11-28T00:09:32.847Z,2.69
2023-11-28T00:12:00.892Z,2.66
2023-11-28T00:14:30.975Z,2.76
2023-11-28T00:17:00.570Z,2.84
2023-11-28T00:19:29.402Z,2.82
2023-11-28T00:21:57.856Z,2.79
2023-11-28T00:24:27.259Z,2.81
2023-11-28T00:26:55.372Z,2.81
2023-11-28T00:29:27.061Z,2.78
2023-11-28T00:31:55.049Z,2.79
2023-11-28T00:34:25.584Z,2.80
2023-11-28T00:36:54.913Z,2.76
2023-11-28T00:39:24.146Z,2.75
2023-11-28T00:41:53.877Z,2.76
2023-11-28T00:44:21.829Z,2.84
2023-11-28T00:46:50.992Z,2.83
2023-11-28T00:49:19.689Z,2.86
2023-11-28T00:51:49.133Z,2.88
2023-11-28T00:54:17.744Z,3.02
2023-11-28T00:56:46.249Z,2.97
2023-11-28T00:59:14.185Z,2.96
2023-11-28T01:01:42.283Z,2.97
2023-11-28T01:04:10.246Z,2.97
2023-11-28T01:06:38.510Z,2.98
2023-11-28T01:09:09.489Z,3.03
2023-11-28T01:11:37.864Z,3.02
2023-11-28T01:14:08.863Z,3.01
2023-11-28T01:16:37.566Z,3.05
2023-11-28T01:19:05.423Z,3.09
2023-11-28T01:21:33.513Z,3.08
2023-11-28T01:24:03.053Z,3.08
2023-11-28T01:26:32.593Z,3.09
2023-11-28T01:29:00.448Z,3.12
2023-11-28T01:31:29.346Z,3.13
2023-11-28T01:34:00.458Z,3.14
2023-11-28T01:36:28.520Z,3.17
2023-11-28T01:38:58.929Z,3.17
2023-11-28T01:41:32.554Z,3.18
2023-11-28T01:44:05.589Z,3.15
2023-11-28T01:46:35.360Z,3.18
2023-11-28T01:49:04.254Z,3.18
2023-11-28T01:51:32.800Z,3.16
2023-11-28T01:54:04.149Z,3.14
2023-11-28T01:56:38.407Z,3.14
2023-11-28T01:59:08.288Z,3.12
2023-11-28T02:01:38.126Z,3.12
2023-11-28T02:04:10.978Z,3.13
2023-11-28T02:06:41.522Z,3.14
2023-11-28T02:09:10.496Z,3.14
2023-11-28T02:11:40.568Z,3.15
2023-11-28T02:14:08.609Z,3.14
2023-11-28T02:16:36.863Z,3.14
2023-11-28T02:19:05.922Z,3.15
2023-11-28T02:21:34.225Z,3.15
2023-11-28T02:24:06.201Z,3.14
2023-11-28T02:26:35.583Z,3.18
2023-11-28T02:29:03.426Z,3.18
2023-11-28T02:31:32.959Z,3.16
2023-11-28T02:34:01.275Z,3.16
2023-11-28T02:36:31.990Z,3.17
2023-11-28T02:39:01.461Z,3.20
2023-11-28T02:41:30.328Z,3.20
2023-11-28T02:44:00.453Z,3.20
2023-11-28T02:46:29.181Z,3.22
2023-11-28T02:48:57.148Z,3.23
2023-11-28T02:51:25.017Z,3.23
2023-11-28T02:53:53.194Z,3.15
2023-11-28T02:56:21.156Z,3.18
2023-11-28T02:58:51.539Z,3.18
2023-11-28T03:01:23.729Z,3.21
2023-11-28T03:03:52.316Z,3.20
2023-11-28T03:06:20.722Z,3.20
2023-11-28T03:08:49.655Z,3.15
2023-11-28T03:11:18.153Z,3.17
2023-11-28T03:13:47.548Z,3.18
2023-11-28T03:16:15.621Z,3.21
2023-11-28T03:18:44.940Z,3.21
2023-11-28T03:21:12.924Z,3.21
2023-11-28T03:23:41.628Z,3.22
2023-11-28T03:26:09.620Z,3.16
2023-11-28T03:28:37.897Z,3.17
2023-11-28T03:31:09.507Z,3.20
2023-11-28T03:33:37.451Z,3.20
2023-11-28T03:36:16.563Z,3.20
2023-11-28T03:38:49.281Z,3.17
2023-11-28T03:41:18.794Z,3.15
2023-11-28T03:43:46.915Z,3.21
2023-11-28T03:46:16.920Z,3.24
2023-11-28T03:48:45.329Z,3.22
2023-11-28T03:51:14.620Z,3.17
2023-11-28T03:53:42.659Z,3.11
2023-11-28T03:56:11.533Z,3.06
2023-11-28T03:58:40.946Z,3.11
2023-11-28T04:01:08.865Z,3.04
2023-11-28T04:03:36.921Z,3.00
2023-11-28T04:06:05.827Z,2.99
2023-11-28T04:08:35.614Z,2.97
2023-11-28T04:11:05.984Z,3.01
2023-11-28T04:13:34.182Z,3.03
2023-11-28T04:16:02.168Z,3.02
2023-11-28T04:18:32.873Z,3.09
2023-11-28T04:21:01.123Z,3.05
2023-11-28T04:23:29.302Z,3.06
2023-11-28T04:25:58.672Z,3.00
2023-11-28T04:28:29.929Z,2.96
2023-11-28T04:30:59.752Z,2.92
2023-11-28T04:33:32.490Z,3.00
2023-11-28T04:36:01.237Z,3.04
2023-11-28T04:38:30.072Z,3.00
2023-11-28T04:40:59.682Z,2.97
2023-11-28T04:43:27.554Z,2.97
2023-11-28T04:45:55.574Z,2.98
2023-11-28T04:48:23.995Z,2.94
2023-11-28T04:50:51.972Z,2.90
2023-11-28T04:53:19.891Z,2.94
2023-11-28T04:55:49.011Z,2.92
2023-11-28T04:58:18.460Z,2.98
2023-11-28T05:00:47.115Z,2.99
2023-11-28T05:03:16.153Z,3.02
2023-11-28T05:05:44.554Z,2.99
2023-11-28T05:08:18.418Z,2.94
2023-11-28T05:10:49.716Z,2.99
2023-11-28T05:13:18.981Z,2.92
2023-11-28T05:15:46.909Z,3.01
2023-11-28T05:18:14.921Z,3.02
2023-11-28T05:20:43.623Z,2.95
2023-11-28T05:23:11.460Z,2.95
2023-11-28T05:25:41.285Z,2.94
2023-11-28T05:28:09.848Z,2.94
2023-11-28T05:30:39.541Z,3.00
2023-11-28T05:33:08.204Z,2.97
2023-11-28T05:35:36.121Z,2.95
2023-11-28T05:38:05.360Z,2.95
2023-11-28T05:40:33.438Z,3.15
2023-11-28T05:43:02.940Z,3.08
2023-11-28T05:45:31.552Z,3.00
2023-11-28T05:48:01.409Z,3.10
2023-11-28T05:50:29.696Z,2.99
2023-11-28T05:52:59.127Z,2.95
2023-11-28T05:55:30.530Z,3.06
2023-11-28T05:57:58.829Z,3.05
2023-11-28T06:00:28.460Z,3.11
2023-11-28T06:02:56.861Z,3.01
2023-11-28T06:05:26.663Z,3.12
2023-11-28T06:07:55.820Z,3.07
2023-11-28T06:10:23.724Z,2.98
2023-11-28T06:12:51.845Z,2.93
2023-11-28T06:15:21.828Z,2.98
2023-11-28T06:17:50.210Z,3.00
2023-11-28T06:20:18.817Z,3.03
2023-11-28T06:22:50.424Z,3.00
2023-11-28T06:25:18.262Z,2.94
2023-11-28T06:27:46.351Z,3.09
2023-11-28T06:30:17.342Z,3.02
2023-11-28T06:32:50.541Z,2.98
2023-11-28T06:35:18.618Z,3.04
2023-11-28T06:37:49.101Z,3.05
2023-11-28T06:40:22.517Z,3.19
2023-11-28T06:42:58.507Z,3.06
2023-11-28T06:45:27.765Z,3.09
2023-11-28T06:47:55.889Z,3.01
2023-11-28T06:50:27.172Z,3.07
2023-11-28T06:52:55.122Z,3.03
2023-11-28T06:55:24.701Z,3.02
2023-11-28T06:57:52.872Z,3.02
2023-11-28T07:00:21.289Z,3.12
2023-11-28T07:02:49.403Z,3.07
2023-11-28T07:05:18.044Z,3.11
2023-11-28T07:07:47.033Z,3.13
2023-11-28T07:10:16.337Z,3.17
2023-11-28T07:12:45.811Z,3.23
2023-11-28T07:15:14.288Z,3.22
2023-11-28T07:17:45.183Z,3.28
2023-11-28T07:20:13.650Z,3.30
2023-11-28T07:22:41.718Z,3.32
2023-11-28T07:25:10.531Z,3.33
2023-11-28T07:27:38.470Z,3.36
2023-11-28T07:30:09.493Z,3.19
2023-11-28T07:32:37.901Z,3.24
2023-11-28T07:35:07.008Z,3.32
2023-11-28T07:37:35.066Z,3.29
2023-11-28T07:40:05.230Z,3.34
2023-11-28T07:42:34.280Z,3.35
2023-11-28T07:45:03.660Z,3.47
2023-11-28T07:47:37.450Z,3.42
2023-11-28T07:50:06.598Z,3.38
2023-11-28T07:52:36.729Z,3.39
2023-11-28T07:55:05.118Z,3.60
2023-11-28T07:57:33.285Z,3.46
2023-11-28T08:00:01.366Z,3.43
2023-11-28T08:02:29.524Z,3.59
2023-11-28T08:05:01.432Z,3.64
2023-11-28T08:07:29.434Z,3.60
2023-11-28T08:09:57.498Z,3.59
2023-11-28T08:12:26.937Z,3.59
2023-11-28T08:14:56.304Z,3.63
2023-11-28T08:17:26.335Z,3.52
2023-11-28T08:19:54.481Z,3.61
2023-11-28T08:22:23.744Z,3.56
2023-11-28T08:24:52.170Z,3.54
2023-11-28T08:27:20.291Z,3.57
2023-11-28T08:29:50.622Z,3.71
2023-11-28T08:32:19.274Z,3.58
2023-11-28T08:34:47.427Z,3.61
2023-11-28T08:37:18.943Z,3.62
2023-11-28T08:39:49.331Z,3.58
2023-11-28T08:42:17.712Z,3.53
2023-11-28T08:44:48.356Z,3.50
2023-11-28T08:47:16.996Z,3.56
2023-11-28T08:49:46.989Z,3.63
2023-11-28T08:52:15.100Z,3.64
2023-11-28T08:54:44.642Z,3.64
2023-11-28T08:57:16.525Z,3.65
2023-11-28T08:59:44.884Z,3.77
2023-11-28T09:02:13.521Z,3.69
2023-11-28T09:04:41.713Z,3.67
2023-11-28T09:07:09.737Z,3.54
2023-11-28T09:09:41.737Z,3.67
2023-11-28T09:12:09.802Z,3.52
2023-11-28T09:14:47.369Z,3.49
2023-11-28T09:17:22.939Z,3.50
2023-11-28T09:19:52.096Z,3.42
2023-11-28T09:22:20.130Z,3.43
2023-11-28T09:24:47.968Z,3.39
2023-11-28T09:27:15.977Z,3.43
2023-11-28T09:29:45.281Z,3.55
2023-11-28T09:32:14.423Z,3.44
2023-11-28T09:34:44.284Z,3.49
2023-11-28T09:37:12.409Z,3.50
2023-11-28T09:39:40.802Z,3.58
2023-11-28T09:42:13.136Z,3.65
2023-11-28T09:44:44.090Z,3.78
2023-11-28T09:47:13.852Z,3.71
2023-11-28T09:49:43.357Z,3.64
2023-11-28T09:52:12.122Z,3.66
2023-11-28T09:54:40.610Z,3.76
2023-11-28T09:57:12.554Z,3.68
2023-11-28T09:59:46.058Z,3.65
2023-11-28T10:02:19.225Z,3.73
2023-11-28T10:04:47.545Z,3.62
2023-11-28T10:07:17.566Z,3.60
2023-11-28T10:09:48.686Z,3.56
2023-11-28T10:12:18.331Z,3.56
2023-11-28T10:14:46.690Z,3.65
2023-11-28T10:17:14.741Z,3.69
2023-11-28T10:19:47.026Z,3.69
2023-11-28T10:22:16.115Z,3.65
2023-11-28T10:24:44.222Z,3.71
2023-11-28T10:27:14.660Z,3.76
2023-11-28T10:29:42.556Z,3.80
2023-11-28T10:32:11.279Z,3.79
2023-11-28T10:34:39.306Z,3.79
2023-11-28T10:37:12.887Z,3.90
2023-11-28T10:39:41.409Z,3.79
2023-11-28T10:42:12.196Z,3.79
2023-11-28T10:44:41.253Z,4.01
2023-11-28T10:47:09.331Z,3.82
2023-11-28T10:49:39.958Z,3.94
2023-11-28T10:52:08.934Z,3.99
2023-11-28T10:54:42.042Z,3.97
2023-11-28T10:57:19.553Z,3.98
2023-11-28T10:59:54.014Z,3.91
2023-11-28T11:02:22.762Z,3.92
2023-11-28T11:04:50.836Z,3.94
2023-11-28T11:07:20.099Z,3.84
2023-11-28T11:09:51.103Z,3.96
2023-11-28T11:12:22.807Z,4.03
2023-11-28T11:14:59.569Z,3.99
2023-11-28T11:17:42.930Z,4.07
2023-11-28T11:20:12.905Z,3.96
2023-11-28T11:22:47.295Z,3.90
2023-11-28T11:25:18.423Z,4.04
2023-11-28T11:27:48.768Z,4.03
2023-11-28T11:30:17.616Z,4.04
2023-11-28T11:32:46.169Z,4.04
2023-11-28T11:35:14.901Z,4.03
2023-11-28T11:37:44.245Z,4.10
2023-11-28T11:40:21.804Z,4.22
2023-11-28T11:42:52.946Z,4.28
2023-11-28T11:45:21.814Z,4.22
2023-11-28T11:47:50.141Z,4.28
2023-11-28T11:50:28.533Z,4.34
2023-11-28T11:53:04.065Z,4.23
2023-11-28T11:55:33.387Z,4.24
2023-11-28T11:58:05.701Z,4.37
2023-11-28T12:00:34.640Z,4.29
2023-11-28T12:03:02.795Z,4.34
2023-11-28T12:05:31.531Z,4.33
2023-11-28T12:08:00.300Z,4.24
2023-11-28T12:10:28.260Z,4.21
2023-11-28T12:12:57.875Z,4.30
2023-11-28T12:15:25.822Z,4.14
2023-11-28T12:18:09.480Z,4.20
2023-11-28T12:20:41.924Z,4.03
2023-11-28T12:23:10.662Z,3.94
2023-11-28T12:25:39.356Z,3.89
2023-11-28T12:28:09.310Z,3.93
2023-11-28T12:30:39.903Z,3.89
2023-11-28T12:33:08.255Z,3.82
2023-11-28T12:35:38.463Z,3.92
2023-11-28T12:38:15.246Z,3.78
2023-11-28T12:40:45.976Z,3.71
2023-11-28T12:43:22.762Z,3.73
2023-11-28T12:45:58.427Z,3.72
2023-11-28T12:48:27.989Z,3.61
2023-11-28T12:50:58.592Z,3.54
2023-11-28T12:53:27.078Z,3.56
2023-11-28T12:55:55.221Z,3.49
2023-11-28T12:58:26.224Z,3.39
2023-11-28T13:00:55.897Z,3.41
2023-11-28T13:03:24.412Z,3.39
2023-11-28T13:05:55.038Z,3.36
2023-11-28T13:08:22.948Z,3.35
2023-11-28T13:10:51.078Z,3.42
2023-11-28T13:13:19.650Z,3.40
2023-11-28T13:15:48.957Z,3.53
2023-11-28T13:18:17.058Z,3.47
2023-11-28T13:20:45.136Z,3.44
2023-11-28T13:23:13.778Z,3.46
2023-11-28T13:25:42.155Z,3.45
2023-11-28T13:28:10.127Z,3.42
2023-11-28T13:30:38.825Z,3.47
2023-11-28T13:33:10.449Z,3.45
2023-11-28T13:35:40.189Z,3.49
2023-11-28T13:38:08.400Z,3.48
2023-11-28T13:40:36.284Z,3.54
2023-11-28T13:43:05.845Z,3.53
2023-11-28T13:45:36.556Z,3.40
2023-11-28T13:48:04.703Z,3.39
2023-11-28T13:50:35.929Z,3.33
2023-11-28T13:53:03.998Z,3.34
2023-11-28T13:55:31.996Z,3.31
2023-11-28T13:58:02.422Z,3.30
2023-11-28T14:00:32.614Z,3.29
2023-11-28T14:03:00.746Z,3.31
2023-11-28T14:05:29.114Z,3.31
2023-11-28T14:07:58.934Z,3.34
2023-11-28T14:10:28.270Z,3.38
2023-11-28T14:12:58.405Z,3.35
2023-11-28T14:15:27.827Z,3.41
2023-11-28T14:17:55.947Z,3.35
2023-11-28T14:20:24.026Z,3.52
2023-11-28T14:22:52.048Z,3.27
2023-11-28T14:25:22.240Z,3.32
2023-11-28T14:27:51.181Z,3.22
2023-11-28T14:30:19.146Z,3.24
2023-11-28T14:32:49.124Z,3.25
2023-11-28T14:35:19.567Z,3.16
2023-11-28T14:37:48.756Z,3.10
2023-11-28T14:40:16.985Z,3.19
2023-11-28T14:42:47.387Z,3.18
2023-11-28T14:45:15.387Z,3.18
2023-11-28T14:47:45.524Z,3.02
2023-11-28T14:50:13.655Z,2.98
2023-11-28T14:52:41.558Z,2.85
2023-11-28T14:55:12.102Z,2.87
2023-11-28T14:57:43.427Z,2.92
2023-11-28T15:02:45.788Z,2.92
2023-11-28T15:05:14.643Z,2.98
2023-11-28T15:07:44.329Z,2.91
2023-11-28T15:10:14.617Z,2.80
2023-11-28T15:12:43.010Z,2.78
2023-11-28T15:15:12.710Z,2.74
2023-11-28T15:17:40.741Z,2.80
2023-11-28T15:20:10.145Z,2.91
2023-11-28T15:22:43.117Z,2.81
2023-11-28T15:25:11.513Z,2.83
2023-11-28T15:27:42.307Z,2.84
2023-11-28T15:30:12.745Z,2.77
2023-11-28T15:32:41.313Z,2.69
2023-11-28T15:35:13.512Z,2.68
2023-11-28T15:37:42.435Z,2.64
2023-11-28T15:40:12.010Z,2.77
2023-11-28T15:42:39.869Z,2.79
2023-11-28T15:45:10.668Z,3.03
2023-11-28T15:47:40.324Z,2.91
2023-11-28T15:50:09.364Z,2.91
2023-11-28T15:52:37.245Z,2.83
2023-11-28T15:55:05.821Z,2.73
2023-11-28T15:57:34.827Z,2.77
2023-11-28T16:00:06.280Z,2.72
2023-11-28T16:02:34.710Z,2.65
2023-11-28T16:05:04.899Z,2.73
2023-11-28T16:07:34.060Z,2.61
2023-11-28T16:10:02.837Z,2.50
2023-11-28T16:12:30.737Z,2.53
2023-11-28T16:15:03.251Z,2.64
2023-11-28T16:17:31.296Z,2.56
2023-11-28T16:19:59.353Z,2.54
2023-11-28T16:22:28.526Z,2.58
2023-11-28T16:24:59.039Z,2.51
2023-11-28T16:27:26.976Z,2.54
2023-11-28T16:29:55.419Z,2.64
2023-11-28T16:32:23.495Z,2.44
2023-11-28T16:34:52.114Z,2.53
2023-11-28T16:37:20.348Z,2.47
2023-11-28T16:39:49.623Z,2.41
2023-11-28T16:42:17.480Z,2.29
2023-11-28T16:44:45.925Z,2.30
2023-11-28T16:47:15.767Z,2.39
2023-11-28T16:49:43.872Z,2.38
2023-11-28T16:52:11.716Z,2.46
2023-11-28T16:54:39.602Z,2.39
2023-11-28T16:57:09.041Z,2.42
2023-11-28T16:59:37.584Z,2.38
2023-11-28T17:02:05.984Z,2.36
2023-11-28T17:04:34.953Z,2.37
2023-11-28T17:07:10.712Z,2.32
2023-11-28T17:09:38.757Z,2.30
2023-11-28T17:12:09.008Z,2.16
2023-11-28T17:14:37.179Z,2.18
2023-11-28T17:17:05.392Z,2.16
2023-11-28T17:19:36.011Z,2.24
2023-11-28T17:22:04.032Z,2.17
2023-11-28T17:24:32.000Z,2.09
2023-11-28T17:26:59.922Z,2.12
2023-11-28T17:29:30.409Z,2.10
2023-11-28T17:31:59.008Z,2.20
2023-11-28T17:34:27.150Z,2.13
2023-11-28T17:36:55.207Z,2.20
2023-11-28T17:39:24.714Z,2.08
2023-11-28T17:41:53.516Z,2.16
2023-11-28T17:44:21.505Z,2.08
2023-11-28T17:46:50.855Z,2.12
2023-11-28T17:49:21.148Z,2.02
2023-11-28T17:51:49.924Z,1.98
2023-11-28T17:54:18.012Z,1.92
2023-11-28T17:56:46.143Z,1.88
2023-11-28T17:59:15.640Z,1.95
2023-11-28T18:01:46.353Z,1.91
2023-11-28T18:04:15.855Z,1.93
2023-11-28T18:06:51.797Z,1.92
2023-11-28T18:09:19.837Z,1.91
2023-11-28T18:11:48.223Z,1.99
2023-11-28T18:14:18.762Z,2.02
2023-11-28T18:16:46.871Z,1.92
2023-11-28T18:19:16.368Z,1.87
2023-11-28T18:21:45.987Z,1.86
2023-11-28T18:24:14.528Z,1.93
2023-11-28T18:26:45.034Z,1.92
2023-11-28T18:29:14.361Z,1.98
2023-11-28T18:31:43.869Z,1.84
2023-11-28T18:34:12.228Z,1.80
2023-11-28T18:36:41.946Z,1.80
2023-11-28T18:39:11.293Z,1.80
2023-11-28T18:41:39.749Z,1.82
2023-11-28T18:44:11.321Z,1.87
2023-11-28T18:46:41.735Z,1.89
2023-11-28T18:49:10.960Z,1.90
2023-11-28T18:51:42.422Z,1.90
2023-11-28T18:54:12.410Z,1.93
2023-11-28T18:56:40.605Z,1.96
2023-11-28T18:59:09.586Z,2.00
2023-11-28T19:01:42.157Z,2.03
2023-11-28T19:04:10.812Z,2.07
2023-11-28T19:06:42.301Z,2.00
2023-11-28T19:09:12.877Z,1.94
2023-11-28T19:11:40.860Z,1.90
2023-11-28T19:14:09.461Z,1.91
2023-11-28T19:16:39.549Z,1.92
2023-11-28T19:19:10.092Z,1.91
2023-11-28T19:21:42.787Z,1.92
2023-11-28T19:24:13.380Z,1.93
2023-11-28T19:26:42.364Z,1.93
2023-11-28T19:29:10.361Z,1.94
2023-11-28T19:31:40.697Z,1.94
2023-11-28T19:34:09.739Z,1.96
2023-11-28T19:36:38.102Z,1.98
2023-11-28T19:39:06.341Z,1.98
2023-11-28T19:41:36.001Z,1.98
2023-11-28T19:44:09.524Z,1.97
2023-11-28T19:46:43.064Z,1.89
2023-11-28T19:49:11.144Z,2.06
2023-11-28T19:51:39.292Z,2.09
2023-11-28T19:54:07.473Z,2.08
2023-11-28T19:56:37.340Z,1.98
2023-11-28T19:59:05.574Z,2.25
2023-11-28T20:01:33.569Z,2.16
2023-11-28T20:04:02.906Z,1.97
2023-11-28T20:06:34.317Z,1.98
2023-11-28T20:09:04.832Z,2.11
2023-11-28T20:11:33.422Z,2.00
2023-11-28T20:14:05.897Z,1.91
2023-11-28T20:16:41.555Z,1.89
2023-11-28T20:19:10.271Z,1.86
2023-11-28T20:21:38.314Z,1.86
2023-11-28T20:24:06.984Z,1.87
2023-11-28T20:26:35.004Z,1.90
2023-11-28T20:29:10.447Z,1.89
2023-11-28T20:31:39.504Z,1.90
2023-11-28T20:34:11.413Z,1.93
2023-11-28T20:36:41.149Z,2.02
2023-11-28T20:39:10.805Z,2.02
2023-11-28T20:41:38.840Z,2.05
2023-11-28T20:44:09.547Z,2.11
2023-11-28T20:46:38.556Z,2.31
2023-11-28T20:49:06.645Z,2.36
2023-11-28T20:51:34.813Z,2.38
2023-11-28T20:54:02.673Z,2.06
2023-11-28T20:56:30.680Z,2.10
2023-11-28T20:58:59.038Z,2.01
2023-11-28T21:01:32.388Z,1.97
2023-11-28T21:04:01.831Z,2.08
2023-11-28T21:06:30.755Z,1.99
2023-11-28T21:08:58.900Z,2.06
2023-11-28T21:11:27.993Z,2.00
2023-11-28T21:13:57.272Z,2.21
2023-11-28T21:16:27.396Z,2.20
2023-11-28T21:19:00.491Z,2.02
2023-11-28T21:21:32.688Z,1.92
2023-11-28T21:24:02.981Z,2.06
2023-11-28T21:26:31.669Z,2.19
2023-11-28T21:29:01.967Z,2.04
2023-11-28T21:31:35.120Z,1.86
2023-11-28T21:34:05.782Z,1.86
2023-11-28T21:36:35.866Z,1.75
2023-11-28T21:39:04.973Z,1.73
2023-11-28T21:41:35.975Z,1.72
2023-11-28T21:44:05.074Z,1.79
2023-11-28T21:46:33.012Z,1.99
2023-11-28T21:49:01.724Z,1.72
2023-11-28T21:51:31.756Z,1.64
2023-11-28T21:53:59.616Z,1.55
2023-11-28T21:56:30.391Z,1.53
2023-11-28T21:58:59.741Z,1.52
2023-11-28T22:01:28.354Z,1.42
2023-11-28T22:03:56.547Z,1.47
2023-11-28T22:06:25.198Z,1.59
2023-11-28T22:09:02.493Z,1.66
2023-11-28T22:11:34.205Z,1.69
2023-11-28T22:14:02.372Z,1.68
2023-11-28T22:16:30.634Z,1.55
2023-11-28T22:19:01.658Z,1.55
2023-11-28T22:21:32.560Z,1.64
2023-11-28T22:24:01.901Z,1.59
2023-11-28T22:26:32.298Z,1.67
2023-11-28T22:29:00.516Z,1.69
2023-11-28T22:31:28.544Z,1.51
2023-11-28T22:33:56.562Z,1.41
2023-11-28T22:36:29.062Z,1.53
2023-11-28T22:38:57.043Z,1.46
2023-11-28T22:41:26.716Z,1.51
2023-11-28T22:43:56.220Z,1.53
2023-11-28T22:46:28.028Z,1.73
2023-11-28T22:48:56.330Z,1.63
2023-11-28T22:51:24.512Z,1.59
2023-11-28T22:53:53.569Z,1.41
2023-11-28T22:56:21.757Z,1.44
2023-11-28T22:58:51.885Z,1.48
2023-11-28T23:01:20.806Z,1.45
2023-11-28T23:03:49.231Z,1.66
2023-11-28T23:06:17.407Z,1.43
2023-11-28T23:08:45.407Z,1.49
2023-11-28T23:11:15.951Z,1.46
2023-11-28T23:13:44.725Z,1.53
2023-11-28T23:16:15.223Z,1.70
2023-11-28T23:18:43.499Z,1.69
2023-11-28T23:21:11.837Z,1.73
2023-11-28T23:23:42.254Z,1.67
2023-11-28T23:26:10.136Z,1.55
2023-11-28T23:28:38.054Z,1.36
2023-11-28T23:31:06.181Z,1.36
2023-11-28T23:33:35.598Z,1.41
2023-11-28T23:36:03.448Z,1.19
2023-11-28T23:38:31.485Z,1.12
2023-11-28T23:40:59.733Z,1.07
2023-11-28T23:43:27.755Z,1.03
2023-11-28T23:45:55.725Z,1.04
2023-11-28T23:48:24.259Z,1.16
2023-11-28T23:50:53.617Z,1.18
2023-11-28T23:53:21.570Z,1.04
2023-11-28T23:55:50.219Z,0.88
2023-11-28T23:58:18.157Z,0.88
